Shaftsbury, Vermont
Current Conditions -  °F | °C
As of 4:54 AM on Thursday 27 Nov 2014 (Local Time) from KDDH Reporting Station
Overcast Overcast  
Wind Chill: -6°   Ceiling: 1300
Heat Index: -2°   Visibility: 10mi
Dew Point: -4°   Wind: 7mph
Humidity: 85%   Direction: 310°NW
Pressure: 29.88"   Gusts: NA
Location:  43.01°N, 73.19°W
Report Text: KDDH 270954Z AUTO 31006KT 10SM BKN013 OVC020 M02/M04 A2988 RMK AO2 SLP128 I1000 T10221044
Loading
Personal Weather Stations






























Interactive Weather Map New forecast layout! Learn more

10-Day Weather Forecast

Advertisements
Track Severe Weather on mobile